Terminal Aerodrome Forecast
Issued by NWS

Home | Current Version | Previous Version | Text Only | Print | Product List | Glossary On
Versions: 1 2 3 4 5 6 7 8 9 10 11 12 13 14 15 16 17 18
000
FTAK31 PAJN 211700
TAFAKT
TAF
PAKT 211730Z 2118/2218 13012KT P6SM VCSH OVC050
     FM211900 14015G25KT P6SM VCSH SCT025 OVC040 WS020/16045KT
     FM212100 16022G32KT P6SM -RA BKN025 OVC040 WS020/15045KT
     FM220200 16012G22KT P6SM -SHRA BKN025 OVC035 WS020/20030KT
     FM220500 16010KT P6SM VCSH SCT025 OVC035
     FM221200 15006KT P6SM VCSH BKN015 OVC035
      AMD LTD TO CLD VIS AND WIND 2206/2215=

USA.gov is the U.S. government's official web portal to all federal, state and local government web resources and services.